Time;durP1;ratioP1;P1;durP2;ratioP2;P2;SDS_P1;SDS_P2;PMS_P1;PMS_P2;Temp;Humidity;BMP_temperature;BMP_pressure;BME280_temperature;BME280_humidity;BME280_pressure;Samples;Min_cycle;Max_cycle;Signal;HPM_P1;HPM_P2
2022/09/05 00:02:01;;;;;;;9.35;7.07;;;;;;;;;;5008891;28;20089;-78
2022/09/05 00:04:36;;;;;;;8.60;5.75;;;;;;;;;;5008686;28;20058;-77
2022/09/05 00:07:20;;;;;;;6.93;5.78;;;;;;;;;;5008790;28;20030;-77
2022/09/05 00:10:05;;;;;;;13.15;6.55;;;;;;;;;;5008681;28;20073;-78
2022/09/05 00:12:34;;;;;;;9.52;6.65;;;;;;;;;;5008685;28;20022;-77
2022/09/05 00:15:00;;;;;;;10.40;6.30;;;;;;;;;;5008687;28;20030;-77
2022/09/05 00:17:34;;;;;;;9.32;5.90;;;;;;;;;;4993598;28;20130;-78
2022/09/05 00:20:18;;;;;;;9.38;6.63;;;;;;;;;;5008652;28;20554;-77
2022/09/05 00:22:50;;;;;;;7.47;6.10;;;;;;;;;;5008680;28;20034;-78
2022/09/05 00:25:16;;;;;;;8.38;5.68;;;;;;;;;;5008613;28;20023;-78
2022/09/05 00:27:48;;;;;;;8.88;6.40;;;;;;;;;;5008562;28;20137;-78
2022/09/05 00:30:14;;;;;;;7.68;5.55;;;;;;;;;;5008548;28;20427;-78
2022/09/05 00:32:44;;;;;;;8.00;5.95;;;;;;;;;;5011865;28;20031;-78
2022/09/05 00:35:29;;;;;;;8.10;6.07;;;;;;;;;;5011727;28;20513;-78
2022/09/05 00:37:57;;;;;;;7.97;5.93;;;;;;;;;;5011941;28;20088;-78
2022/09/05 00:40:35;;;;;;;9.55;5.60;;;;;;;;;;5011922;28;20058;-77
2022/09/05 00:43:07;;;;;;;8.95;6.25;;;;;;;;;;5011982;28;20041;-77
2022/09/05 00:45:46;;;;;;;6.85;4.57;;;;;;;;;;5011854;28;20081;-78
2022/09/05 00:48:24;;;;;;;7.93;5.85;;;;;;;;;;5011782;28;20110;-77
2022/09/05 00:51:09;;;;;;;6.63;4.65;;;;;;;;;;5012056;28;20034;-77
2022/09/05 00:53:43;;;;;;;6.82;5.05;;;;;;;;;;5011709;28;20578;-78
2022/09/05 00:56:33;;;;;;;8.75;6.15;;;;;;;;;;5011615;28;20438;-77
2022/09/05 00:59:05;;;;;;;7.10;4.95;;;;;;;;;;5011668;28;20034;-77
2022/09/05 01:01:50;;;;;;;10.50;6.13;;;;;;;;;;5011520;28;20391;-78
2022/09/05 01:04:16;;;;;;;7.35;5.18;;;;;;;;;;4997212;28;20116;-77
2022/09/05 01:07:03;;;;;;;8.70;5.32;;;;;;;;;;5011452;28;20022;-77
2022/09/05 01:09:44;;;;;;;9.05;5.93;;;;;;;;;;5011446;28;20181;-78
2022/09/05 01:12:26;;;;;;;8.90;5.65;;;;;;;;;;4996163;28;20041;-76
2022/09/05 01:14:58;;;;;;;7.90;5.55;;;;;;;;;;5011298;28;20035;-77
2022/09/05 01:17:43;;;;;;;7.18;5.00;;;;;;;;;;4996068;28;20038;-77
2022/09/05 01:20:12;;;;;;;8.02;5.75;;;;;;;;;;5011114;28;20030;-77
2022/09/05 01:22:44;;;;;;;9.05;5.18;;;;;;;;;;5011167;28;20033;-77
2022/09/05 01:25:23;;;;;;;10.52;6.13;;;;;;;;;;5011080;28;20036;-76
2022/09/05 01:28:15;;;;;;;7.28;4.75;;;;;;;;;;5011003;28;20065;-76
2022/09/05 01:30:47;;;;;;;6.88;4.75;;;;;;;;;;4992683;28;20038;-77
2022/09/05 01:33:17;;;;;;;8.48;5.55;;;;;;;;;;4995866;28;20030;-77
2022/09/05 01:36:02;;;;;;;6.30;4.60;;;;;;;;;;4995670;28;20081;-77
2022/09/05 01:38:47;;;;;;;10.38;5.63;;;;;;;;;;4995739;28;20034;-76
2022/09/05 01:41:20;;;;;;;6.45;4.00;;;;;;;;;;5010504;28;20022;-78
2022/09/05 01:44:25;;;;;;;6.72;4.95;;;;;;;;;;5010702;28;20044;-77
2022/09/05 01:47:09;;;;;;;7.20;5.15;;;;;;;;;;4954715;29;20033;-77
2022/09/05 01:49:56;;;;;;;8.90;5.47;;;;;;;;;;4938783;29;20027;-78
2022/09/05 01:52:28;;;;;;;6.78;5.07;;;;;;;;;;4979100;28;20038;-78
2022/09/05 01:55:17;;;;;;;6.75;4.88;;;;;;;;;;5010398;28;20364;-78
2022/09/05 01:57:47;;;;;;;9.07;5.35;;;;;;;;;;4995316;28;20057;-78
2022/09/05 02:00:15;;;;;;;10.82;5.80;;;;;;;;;;5010496;28;20053;-77
2022/09/05 02:02:48;;;;;;;8.07;6.07;;;;;;;;;;5010375;28;20390;-77
2022/09/05 02:05:19;;;;;;;10.07;5.13;;;;;;;;;;4995723;28;20030;-78
2022/09/05 02:08:04;;;;;;;13.43;5.95;;;;;;;;;;5010412;28;20022;-78
2022/09/05 02:10:42;;;;;;;14.02;5.72;;;;;;;;;;5010248;28;20057;-78
2022/09/05 02:13:22;;;;;;;8.25;6.50;;;;;;;;;;5010246;28;20080;-77
2022/09/05 02:15:52;;;;;;;11.73;5.80;;;;;;;;;;5010127;28;20049;-78
2022/09/05 02:18:29;;;;;;;7.47;5.30;;;;;;;;;;5010122;28;20022;-78
2022/09/05 02:21:01;;;;;;;8.55;5.80;;;;;;;;;;5010136;28;20401;-78
2022/09/05 02:23:40;;;;;;;8.57;5.35;;;;;;;;;;5011034;28;20049;-78
2022/09/05 02:26:12;;;;;;;8.18;5.28;;;;;;;;;;5010049;28;20034;-78
2022/09/05 02:28:45;;;;;;;8.60;5.47;;;;;;;;;;5009942;28;20033;-78
2022/09/05 02:31:38;;;;;;;6.93;5.13;;;;;;;;;;5009927;28;20096;-78
2022/09/05 02:34:17;;;;;;;7.20;5.25;;;;;;;;;;4979234;28;20521;-76
2022/09/05 02:36:45;;;;;;;9.30;5.55;;;;;;;;;;4994857;28;20041;-77
2022/09/05 02:39:29;;;;;;;9.57;5.55;;;;;;;;;;5009810;28;20030;-77
2022/09/05 02:41:58;;;;;;;7.63;4.95;;;;;;;;;;4994614;28;20031;-76
2022/09/05 02:44:38;;;;;;;7.00;4.75;;;;;;;;;;5009592;28;20476;-78
2022/09/05 02:47:21;;;;;;;8.95;5.88;;;;;;;;;;5011756;28;20030;-77
2022/09/05 02:49:50;;;;;;;11.25;6.65;;;;;;;;;;5011812;28;20022;-77
2022/09/05 02:52:22;;;;;;;9.82;5.50;;;;;;;;;;4994605;28;20040;-75
2022/09/05 02:54:51;;;;;;;11.93;6.50;;;;;;;;;;5008974;28;20558;-77
2022/09/05 02:57:30;;;;;;;10.70;6.20;;;;;;;;;;5009381;28;20042;-77
2022/09/05 02:59:56;;;;;;;9.43;5.47;;;;;;;;;;4994811;28;20026;-78
2022/09/05 03:02:41;;;;;;;8.68;4.82;;;;;;;;;;5009307;28;20037;-78
2022/09/05 03:05:07;;;;;;;8.73;6.57;;;;;;;;;;5009323;28;20080;-78
2022/09/05 03:07:53;;;;;;;9.32;6.75;;;;;;;;;;4994119;28;20438;-78
2022/09/05 03:10:38;;;;;;;8.52;5.93;;;;;;;;;;5009268;28;20026;-77
2022/09/05 03:13:23;;;;;;;13.07;5.95;;;;;;;;;;5009219;28;20498;-78
2022/09/05 03:15:49;;;;;;;9.25;6.25;;;;;;;;;;5009105;28;20042;-77
2022/09/05 03:18:24;;;;;;;9.13;6.72;;;;;;;;;;5009416;28;20375;-78
2022/09/05 03:21:14;;;;;;;9.38;5.53;;;;;;;;;;5009128;28;20069;-77
2022/09/05 03:23:52;;;;;;;8.98;5.65;;;;;;;;;;5009217;28;20518;-78
2022/09/05 03:26:33;;;;;;;11.45;5.28;;;;;;;;;;5009055;28;20027;-77
2022/09/05 03:29:07;;;;;;;13.07;5.85;;;;;;;;;;5009030;28;20027;-78
2022/09/05 03:31:46;;;;;;;8.70;5.75;;;;;;;;;;4994528;28;20466;-77
2022/09/05 03:34:30;;;;;;;11.02;5.93;;;;;;;;;;5008796;28;20052;-77
2022/09/05 03:37:25;;;;;;;8.95;5.72;;;;;;;;;;5008965;28;20390;-78
2022/09/05 03:40:12;;;;;;;8.32;5.35;;;;;;;;;;5009015;28;20058;-77
2022/09/05 03:42:47;;;;;;;10.15;5.85;;;;;;;;;;5008902;28;20027;-77
2022/09/05 03:45:19;;;;;;;8.65;5.32;;;;;;;;;;5008837;28;20045;-77
2022/09/05 03:48:04;;;;;;;10.48;6.40;;;;;;;;;;5008861;28;20034;-77
2022/09/05 03:50:39;;;;;;;9.00;5.72;;;;;;;;;;5008888;28;20489;-77
2022/09/05 03:53:20;;;;;;;9.50;5.90;;;;;;;;;;4993733;28;20045;-77
2022/09/05 03:56:05;;;;;;;10.68;5.03;;;;;;;;;;5008679;28;20038;-78
2022/09/05 03:58:47;;;;;;;9.02;5.32;;;;;;;;;;5008782;28;20027;-78
2022/09/05 04:01:19;;;;;;;7.25;4.80;;;;;;;;;;4994099;28;20105;-77
2022/09/05 04:03:48;;;;;;;7.80;4.95;;;;;;;;;;5008740;28;20033;-77
2022/09/05 04:06:26;;;;;;;8.30;4.55;;;;;;;;;;5011497;28;20045;-78
2022/09/05 04:09:11;;;;;;;8.07;5.38;;;;;;;;;;5012485;28;20018;-77
2022/09/05 04:11:46;;;;;;;7.72;5.43;;;;;;;;;;5012426;28;20121;-78
2022/09/05 04:14:18;;;;;;;11.15;5.28;;;;;;;;;;5012364;28;20121;-78
2022/09/05 04:16:44;;;;;;;8.13;5.22;;;;;;;;;;5013214;28;20027;-77
2022/09/05 04:19:29;;;;;;;9.35;5.00;;;;;;;;;;5012218;28;20033;-78
2022/09/05 04:21:58;;;;;;;5.97;4.43;;;;;;;;;;4997092;28;20029;-78
2022/09/05 04:24:30;;;;;;;7.28;4.55;;;;;;;;;;4997029;28;20026;-78
2022/09/05 04:27:05;;;;;;;7.30;4.53;;;;;;;;;;4996930;28;20038;-78
2022/09/05 04:29:43;;;;;;;7.28;4.78;;;;;;;;;;5011972;28;20493;-77
2022/09/05 04:32:09;;;;;;;8.18;5.40;;;;;;;;;;5012814;28;20027;-77
2022/09/05 04:34:50;;;;;;;8.45;5.22;;;;;;;;;;4996681;28;20053;-77
2022/09/05 04:37:54;;;;;;;9.65;4.80;;;;;;;;;;5011884;28;20026;-76
2022/09/05 04:40:40;;;;;;;8.68;5.13;;;;;;;;;;4957352;28;20051;-76
2022/09/05 04:43:13;;;;;;;8.48;5.97;;;;;;;;;;4992685;28;20042;-78
2022/09/05 04:45:42;;;;;;;11.40;6.15;;;;;;;;;;5011645;28;20037;-77
2022/09/05 04:48:10;;;;;;;7.00;4.97;;;;;;;;;;4997220;28;20095;-77
2022/09/05 04:50:46;;;;;;;8.63;6.00;;;;;;;;;;5011694;28;20030;-78
2022/09/05 04:53:15;;;;;;;8.57;5.68;;;;;;;;;;5011713;28;20022;-77
2022/09/05 04:55:46;;;;;;;10.88;5.05;;;;;;;;;;5011667;28;20050;-78
2022/09/05 04:58:31;;;;;;;10.20;5.90;;;;;;;;;;5011105;28;20026;-76
2022/09/05 05:01:02;;;;;;;9.70;7.53;;;;;;;;;;5011329;28;20029;-77
2022/09/05 05:03:29;;;;;;;7.25;5.43;;;;;;;;;;5011516;28;20036;-76
2022/09/05 05:06:02;;;;;;;11.10;6.68;;;;;;;;;;4996349;28;20027;-76
2022/09/05 05:08:46;;;;;;;12.77;6.38;;;;;;;;;;4994690;28;20015;-76
2022/09/05 05:11:15;;;;;;;8.65;6.20;;;;;;;;;;5004175;28;20034;-75
2022/09/05 05:13:41;;;;;;;10.82;7.18;;;;;;;;;;4995719;28;20026;-77
2022/09/05 05:16:14;;;;;;;11.90;7.20;;;;;;;;;;4995625;28;20026;-76
2022/09/05 05:18:44;;;;;;;9.65;6.97;;;;;;;;;;5010704;28;20030;-78
2022/09/05 05:21:15;;;;;;;11.38;7.32;;;;;;;;;;5010544;28;20558;-76
2022/09/05 05:23:44;;;;;;;9.20;7.20;;;;;;;;;;4995035;28;20419;-75
2022/09/05 05:26:13;;;;;;;9.73;6.93;;;;;;;;;;5011068;28;20129;-74
2022/09/05 05:28:57;;;;;;;12.85;7.05;;;;;;;;;;4995844;28;20027;-76
2022/09/05 05:31:26;;;;;;;9.60;7.70;;;;;;;;;;4995949;28;20022;-79
2022/09/05 05:33:53;;;;;;;15.70;7.13;;;;;;;;;;5010735;28;20033;-81
2022/09/05 05:36:25;;;;;;;10.10;7.30;;;;;;;;;;4995655;28;20047;-74
2022/09/05 05:39:02;;;;;;;10.80;7.68;;;;;;;;;;5010642;28;20462;-81
2022/09/05 05:41:32;;;;;;;8.43;6.85;;;;;;;;;;5010829;28;20033;-78
2022/09/05 05:43:58;;;;;;;12.68;7.25;;;;;;;;;;5010875;28;20068;-76
2022/09/05 05:46:35;;;;;;;12.93;7.22;;;;;;;;;;5011067;28;20419;-76
2022/09/05 05:49:13;;;;;;;11.00;6.78;;;;;;;;;;5010688;28;20057;-78
2022/09/05 05:52:18;;;;;;;7.95;6.00;;;;;;;;;;5010680;28;20027;-74
2022/09/05 05:54:49;;;;;;;10.85;5.50;;;;;;;;;;4973844;28;20064;-75
2022/09/05 05:57:21;;;;;;;8.52;4.88;;;;;;;;;;4973914;28;20097;-78
2022/09/05 05:59:50;;;;;;;6.20;4.10;;;;;;;;;;4984829;28;20037;-75
2022/09/05 06:02:16;;;;;;;6.82;4.18;;;;;;;;;;4995121;28;20037;-73
2022/09/05 06:04:45;;;;;;;7.10;4.03;;;;;;;;;;5010306;28;20026;-74
2022/09/05 06:07:30;;;;;;;8.27;3.78;;;;;;;;;;5010156;28;20038;-76
2022/09/05 06:09:59;;;;;;;5.00;2.88;;;;;;;;;;4995154;28;20037;-76
2022/09/05 06:12:43;;;;;;;5.03;2.70;;;;;;;;;;4995096;28;20105;-76
2022/09/05 06:15:28;;;;;;;4.63;2.60;;;;;;;;;;5010187;28;20030;-76
2022/09/05 06:17:57;;;;;;;5.55;2.50;;;;;;;;;;5013031;28;20030;-92
2022/09/05 06:20:30;;;;;;;5.10;2.65;;;;;;;;;;5010975;28;20418;-91
2022/09/05 06:29:16;;;;;;;5.03;2.60;;;;;;;;;;4995925;28;20087;-91
2022/09/05 06:31:52;;;;;;;3.45;2.60;;;;;;;;;;5010744;28;20022;-92
2022/09/05 06:34:36;;;;;;;4.38;2.17;;;;;;;;;;5010854;28;20078;-91
2022/09/05 06:37:15;;;;;;;6.05;2.65;;;;;;;;;;5011094;28;20026;-92
2022/09/05 06:39:59;;;;;;;3.95;2.50;;;;;;;;;;5010940;28;20035;-90
2022/09/05 06:42:54;;;;;;;5.10;2.60;;;;;;;;;;5012682;28;20031;-93
2022/09/05 06:45:46;;;;;;;6.18;2.67;;;;;;;;;;5085067;22;20038;-94
2022/09/05 06:48:17;;;;;;;4.13;2.53;;;;;;;;;;4994378;28;20133;-91
2022/09/05 06:51:07;;;;;;;4.78;2.67;;;;;;;;;;4998641;28;20046;-90
2022/09/05 06:53:54;;;;;;;3.83;2.40;;;;;;;;;;5010978;28;20490;-90
2022/09/05 07:03:29;;;;;;;4.97;2.58;;;;;;;;;;4979743;28;20042;-95
2022/09/05 07:06:01;;;;;;;3.95;1.95;;;;;;;;;;4936384;29;20043;-96
2022/09/05 07:12:03;;;;;;;;;;;;;;;;;;;;;
2022/09/05 07:22:57;;;;;;;4.07;2.10;;;;;;;;;;5714536;23;20066;-93
2022/09/05 07:25:45;;;;;;;3.65;2.00;;;;;;;;;;5004027;28;20030;-95
2022/09/05 07:28:28;;;;;;;3.17;1.90;;;;;;;;;;4997962;28;20034;-89
2022/09/05 07:31:02;;;;;;;4.65;2.30;;;;;;;;;;4994541;28;20034;-89
2022/09/05 07:37:09;;;;;;;4.03;2.10;;;;;;;;;;4995584;28;20037;-93
2022/09/05 07:39:38;;;;;;;6.65;1.88;;;;;;;;;;4995267;28;20613;-94
2022/09/05 07:42:06;;;;;;;3.13;2.10;;;;;;;;;;4998878;28;20026;-89
2022/09/05 07:56:07;;;;;;;3.97;2.00;;;;;;;;;;5141166;23;20084;-90
2022/09/05 08:01:14;;;;;;;3.08;2.05;;;;;;;;;;5326529;22;20081;-90
2022/09/05 08:03:43;;;;;;;2.88;1.95;;;;;;;;;;5030330;28;20022;-90
2022/09/05 08:06:13;;;;;;;3.03;2.20;;;;;;;;;;5046737;22;20172;-90
2022/09/05 08:09:05;;;;;;;2.75;1.92;;;;;;;;;;5028033;28;20030;-90
2022/09/05 08:15:04;;;;;;;4.07;2.33;;;;;;;;;;5003709;28;20033;-94
2022/09/05 08:17:53;;;;;;;3.70;2.00;;;;;;;;;;4997309;28;20065;-92
2022/09/05 08:23:40;;;;;;;3.53;1.90;;;;;;;;;;4939396;29;20111;-92
2022/09/05 08:26:11;;;;;;;3.65;1.98;;;;;;;;;;4989460;28;20487;-92
2022/09/05 08:28:56;;;;;;;3.83;2.57;;;;;;;;;;4996147;28;20030;-92
2022/09/05 08:31:52;;;;;;;5.40;2.20;;;;;;;;;;4996717;28;20034;-91
2022/09/05 08:39:53;;;;;;;5.38;1.90;;;;;;;;;;5018414;28;20037;-93
2022/09/05 08:42:25;;;;;;;3.92;2.28;;;;;;;;;;5019277;28;20022;-91
2022/09/05 08:48:30;;;;;;;;;;;;;;;;;;;;;
2022/09/05 08:51:06;;;;;;;5.63;2.60;;;;;;;;;;5057208;22;20054;-91
2022/09/05 08:56:22;;;;;;;8.75;2.10;;;;;;;;;;5059419;22;20061;-93
2022/09/05 08:59:07;;;;;;;3.90;2.33;;;;;;;;;;5016668;28;20479;-91
2022/09/05 09:01:37;;;;;;;3.85;2.15;;;;;;;;;;5015957;28;20471;-92
2022/09/05 09:04:13;;;;;;;3.53;2.30;;;;;;;;;;5019272;28;20026;-95
2022/09/05 09:06:53;;;;;;;4.25;2.17;;;;;;;;;;5017944;28;20041;-90
2022/09/05 09:09:40;;;;;;;3.80;2.45;;;;;;;;;;5016018;28;20034;-92
2022/09/05 09:12:10;;;;;;;3.40;2.20;;;;;;;;;;5015675;28;20120;-92
2022/09/05 09:17:41;;;;;;;5.15;2.20;;;;;;;;;;5005210;28;20042;-92
2022/09/05 09:20:08;;;;;;;3.00;1.98;;;;;;;;;;5015552;28;20037;-93
2022/09/05 09:22:56;;;;;;;3.22;2.20;;;;;;;;;;5015521;28;20026;-93
2022/09/05 09:25:26;;;;;;;3.92;2.05;;;;;;;;;;5015375;28;20111;-92
2022/09/05 09:28:05;;;;;;;5.25;2.28;;;;;;;;;;5015899;28;20026;-92
2022/09/05 09:30:36;;;;;;;3.33;2.00;;;;;;;;;;5015407;28;20136;-94
2022/09/05 09:33:06;;;;;;;3.72;2.10;;;;;;;;;;5015484;28;20026;-93
2022/09/05 09:35:41;;;;;;;3.63;2.23;;;;;;;;;;5015927;28;20382;-93
2022/09/05 09:38:16;;;;;;;6.10;2.20;;;;;;;;;;5015287;28;20034;-92
2022/09/05 09:40:47;;;;;;;4.65;2.55;;;;;;;;;;5015199;28;20117;-93
2022/09/05 09:43:26;;;;;;;3.88;2.10;;;;;;;;;;5014905;28;20029;-93
2022/09/05 09:46:11;;;;;;;6.20;2.30;;;;;;;;;;5015004;28;20033;-93
2022/09/05 09:49:03;;;;;;;2.97;2.00;;;;;;;;;;5014842;28;20030;-92
2022/09/05 09:51:55;;;;;;;2.92;1.92;;;;;;;;;;5015424;28;20057;-94
2022/09/05 09:54:43;;;;;;;2.53;1.63;;;;;;;;;;4961853;28;20149;-92
2022/09/05 09:57:28;;;;;;;3.55;2.08;;;;;;;;;;5042011;28;20065;-93
2022/09/05 10:05:27;;;;;;;3.08;1.63;;;;;;;;;;5076263;22;20053;-93
2022/09/05 10:07:54;;;;;;;4.80;1.92;;;;;;;;;;5016256;28;20022;-92
2022/09/05 10:10:47;;;;;;;2.80;1.58;;;;;;;;;;5014852;28;20030;-94
2022/09/05 10:13:13;;;;;;;2.72;1.77;;;;;;;;;;5015319;28;20038;-94
2022/09/05 10:15:42;;;;;;;4.20;2.03;;;;;;;;;;5019628;28;20097;-92
2022/09/05 10:18:08;;;;;;;2.92;1.77;;;;;;;;;;5015587;28;20113;-93
2022/09/05 10:20:44;;;;;;;3.35;2.00;;;;;;;;;;5015412;28;20061;-94
2022/09/05 10:23:10;;;;;;;3.50;1.65;;;;;;;;;;5014381;28;20034;-92
2022/09/05 10:25:54;;;;;;;2.63;1.35;;;;;;;;;;5014067;28;20018;-92
2022/09/05 10:28:38;;;;;;;2.15;1.50;;;;;;;;;;5015023;28;20029;-94
2022/09/05 10:31:12;;;;;;;4.25;1.88;;;;;;;;;;5014461;28;20383;-94
2022/09/05 10:33:57;;;;;;;2.92;1.77;;;;;;;;;;5014037;28;20030;-92
2022/09/05 10:36:30;;;;;;;4.00;1.75;;;;;;;;;;5013966;28;20095;-94
2022/09/05 10:39:20;;;;;;;5.60;1.45;;;;;;;;;;5013662;28;20037;-93
2022/09/05 10:41:49;;;;;;;2.25;1.42;;;;;;;;;;5014315;28;20052;-94
2022/09/05 10:44:22;;;;;;;3.42;1.55;;;;;;;;;;5014225;28;20028;-92
2022/09/05 10:47:07;;;;;;;2.97;1.23;;;;;;;;;;5014097;28;20025;-90
2022/09/05 10:49:35;;;;;;;2.97;1.50;;;;;;;;;;5014523;28;20047;-90
2022/09/05 10:52:23;;;;;;;2.00;1.20;;;;;;;;;;5015194;28;20126;-89
2022/09/05 10:55:08;;;;;;;3.00;1.30;;;;;;;;;;5019632;28;20026;-92
2022/09/05 11:01:05;;;;;;;3.25;1.55;;;;;;;;;;5014791;28;20088;-91
2022/09/05 11:03:57;;;;;;;2.63;1.60;;;;;;;;;;5013232;28;20471;-90
2022/09/05 11:06:56;;;;;;;2.92;1.50;;;;;;;;;;4964742;28;20054;-92
2022/09/05 11:09:40;;;;;;;3.28;1.60;;;;;;;;;;4962360;28;20030;-90
2022/09/05 11:12:26;;;;;;;2.63;1.40;;;;;;;;;;5010886;28;20053;-91
2022/09/05 11:15:01;;;;;;;2.38;1.27;;;;;;;;;;5010561;28;20025;-93
2022/09/05 11:17:34;;;;;;;2.58;1.15;;;;;;;;;;4993685;28;20076;-92
2022/09/05 11:20:32;;;;;;;4.43;1.77;;;;;;;;;;4993895;28;20489;-90
2022/09/05 11:23:01;;;;;;;3.28;2.05;;;;;;;;;;4951730;28;20060;-91
2022/09/05 11:25:28;;;;;;;3.00;1.95;;;;;;;;;;4994354;28;20022;-92
2022/09/05 11:27:57;;;;;;;3.08;1.98;;;;;;;;;;4994960;28;20030;-92
2022/09/05 11:30:26;;;;;;;3.40;2.00;;;;;;;;;;4993685;28;20033;-90
2022/09/05 11:33:11;;;;;;;3.40;1.98;;;;;;;;;;4993702;28;20022;-91
2022/09/05 11:35:56;;;;;;;4.72;1.88;;;;;;;;;;4994657;28;20359;-90
2022/09/05 11:38:45;;;;;;;3.50;1.70;;;;;;;;;;4994242;28;20034;-93
2022/09/05 11:41:30;;;;;;;4.28;1.50;;;;;;;;;;4983824;28;20552;-93
2022/09/05 11:43:59;;;;;;;3.60;1.70;;;;;;;;;;4993644;28;20425;-93
2022/09/05 11:46:52;;;;;;;2.47;1.60;;;;;;;;;;4993658;28;20102;-92
2022/09/05 11:49:39;;;;;;;3.15;1.63;;;;;;;;;;4993981;28;20034;-93
2022/09/05 11:52:25;;;;;;;5.50;1.70;;;;;;;;;;4993198;28;20034;-94
2022/09/05 11:55:09;;;;;;;2.72;1.63;;;;;;;;;;4993955;28;20034;-96
2022/09/05 11:57:42;;;;;;;2.50;1.60;;;;;;;;;;4993528;28;20773;-93
2022/09/05 12:00:14;;;;;;;4.57;1.85;;;;;;;;;;4994308;28;20040;-94
2022/09/05 12:02:40;;;;;;;;;;;;;;;;;;4993858;28;20121;-93
2022/09/05 12:05:25;;;;;;;3.35;1.70;;;;;;;;;;5010194;28;19964;-91
2022/09/05 12:07:59;;;;;;;3.63;1.60;;;;;;;;;;5010695;28;20022;-92
2022/09/05 12:10:40;;;;;;;4.60;1.98;;;;;;;;;;5011751;28;20030;-91
2022/09/05 12:13:13;;;;;;;3.95;1.90;;;;;;;;;;5009655;28;20114;-93
2022/09/05 12:15:45;;;;;;;2.65;1.90;;;;;;;;;;5009947;28;20034;-94
2022/09/05 12:18:24;;;;;;;3.63;1.80;;;;;;;;;;5010608;28;20023;-94
2022/09/05 12:20:57;;;;;;;2.72;1.45;;;;;;;;;;5009620;28;20036;-93
2022/09/05 12:23:32;;;;;;;5.60;1.80;;;;;;;;;;5009588;28;20023;-93
2022/09/05 12:26:03;;;;;;;2.78;1.75;;;;;;;;;;5010451;28;20026;-93
2022/09/05 12:28:56;;;;;;;2.70;1.60;;;;;;;;;;5013351;28;20094;-91
2022/09/05 12:31:28;;;;;;;2.85;1.80;;;;;;;;;;4937903;29;20040;-92
2022/09/05 12:33:55;;;;;;;3.17;1.90;;;;;;;;;;5013683;28;20138;-94
2022/09/05 12:36:34;;;;;;;4.65;2.08;;;;;;;;;;5013275;28;20097;-93
2022/09/05 12:39:21;;;;;;;3.20;1.90;;;;;;;;;;5014360;28;20027;-91
2022/09/05 12:41:50;;;;;;;7.53;2.00;;;;;;;;;;4999556;28;20025;-91
2022/09/05 12:44:26;;;;;;;3.38;2.00;;;;;;;;;;5013822;28;20030;-92
2022/09/05 12:50:05;;;;;;;;;;;;;;;;;;5001024;28;20053;-94
2022/09/05 12:52:33;;;;;;;3.97;1.92;;;;;;;;;;5014255;28;19906;-93
2022/09/05 12:58:37;;;;;;;2.83;1.80;;;;;;;;;;5741588;23;20048;-92
2022/09/05 13:01:09;;;;;;;6.80;1.70;;;;;;;;;;5019215;28;20059;-92
2022/09/05 13:03:43;;;;;;;4.25;1.50;;;;;;;;;;5017983;28;20025;-93
2022/09/05 13:06:13;;;;;;;2.60;1.50;;;;;;;;;;5018188;28;20092;-95
2022/09/05 13:08:46;;;;;;;5.05;1.55;;;;;;;;;;5017798;28;20083;-93
2022/09/05 13:11:15;;;;;;;2.65;1.52;;;;;;;;;;5016753;28;20026;-93
2022/09/05 13:13:50;;;;;;;2.75;1.35;;;;;;;;;;5038460;28;20022;-92
2022/09/05 13:16:28;;;;;;;4.72;1.77;;;;;;;;;;5037976;28;20512;-94
2022/09/05 13:19:06;;;;;;;2.08;1.50;;;;;;;;;;5036554;28;20079;-91
2022/09/05 13:21:34;;;;;;;5.57;1.55;;;;;;;;;;5036169;28;20029;-91
2022/09/05 13:24:16;;;;;;;3.00;1.40;;;;;;;;;;5036401;28;20030;-93
2022/09/05 13:26:43;;;;;;;4.70;1.57;;;;;;;;;;5014972;28;20088;-92
2022/09/05 13:29:14;;;;;;;2.28;1.35;;;;;;;;;;5019550;28;20040;-92
2022/09/05 13:31:40;;;;;;;4.18;1.70;;;;;;;;;;5036227;28;20030;-92
2022/09/05 13:34:19;;;;;;;3.38;1.27;;;;;;;;;;5017679;28;20052;-91
2022/09/05 13:36:49;;;;;;;3.03;1.50;;;;;;;;;;5015246;28;20402;-91
2022/09/05 13:39:19;;;;;;;2.33;1.50;;;;;;;;;;5014562;28;20057;-92
2022/09/05 13:41:58;;;;;;;4.82;1.45;;;;;;;;;;5015693;28;20030;-93
2022/09/05 13:44:25;;;;;;;2.05;1.33;;;;;;;;;;5028277;28;20098;-91
2022/09/05 13:46:54;;;;;;;2.63;1.48;;;;;;;;;;5031992;28;20072;-92
2022/09/05 13:49:23;;;;;;;5.07;1.50;;;;;;;;;;5032266;28;20052;-93
2022/09/05 13:51:50;;;;;;;6.88;1.58;;;;;;;;;;5031735;28;20022;-92
2022/09/05 13:54:23;;;;;;;3.80;1.40;;;;;;;;;;5032309;28;20026;-96
2022/09/05 13:56:58;;;;;;;3.97;1.52;;;;;;;;;;5031875;28;20037;-93
2022/09/05 13:59:28;;;;;;;2.25;1.45;;;;;;;;;;5031268;28;20482;-93
2022/09/05 14:02:11;;;;;;;3.13;1.52;;;;;;;;;;5031285;28;20037;-93
2022/09/05 14:04:55;;;;;;;1.88;1.33;;;;;;;;;;5022217;28;20030;-93
2022/09/05 14:07:43;;;;;;;3.03;1.50;;;;;;;;;;5008121;28;20030;-95
2022/09/05 14:10:28;;;;;;;2.28;1.20;;;;;;;;;;5015267;28;20392;-93
2022/09/05 14:13:11;;;;;;;1.80;1.13;;;;;;;;;;5015063;28;20029;-93
2022/09/05 14:15:56;;;;;;;2.20;1.25;;;;;;;;;;5015510;28;20025;-95
2022/09/05 14:18:28;;;;;;;3.45;1.25;;;;;;;;;;5016183;28;20030;-92
2022/09/05 14:21:17;;;;;;;2.50;1.50;;;;;;;;;;5015661;28;20111;-91
2022/09/05 14:23:54;;;;;;;2.80;1.40;;;;;;;;;;5016366;28;20030;-94
2022/09/05 14:26:35;;;;;;;6.70;1.40;;;;;;;;;;5018237;28;20064;-93
2022/09/05 14:29:07;;;;;;;3.65;1.45;;;;;;;;;;5018716;28;20030;-94
2022/09/05 14:31:47;;;;;;;5.32;1.60;;;;;;;;;;5018461;28;20033;-94
2022/09/05 14:34:41;;;;;;;2.63;1.20;;;;;;;;;;5015841;28;20033;-92
2022/09/05 14:40:37;;;;;;;2.47;1.50;;;;;;;;;;5015864;28;20033;-93
2022/09/05 14:43:12;;;;;;;3.45;1.77;;;;;;;;;;5014976;28;20018;-93
2022/09/05 14:45:58;;;;;;;3.78;1.60;;;;;;;;;;5013913;28;20513;-90
2022/09/05 14:48:56;;;;;;;5.85;2.20;;;;;;;;;;5500888;23;20065;-90
2022/09/05 16:04:12;;;;;;;2.90;1.52;;;;;;;;;;5401891;22;20521;-74
2022/09/05 16:06:38;;;;;;;5.43;1.92;;;;;;;;;;5033262;28;20137;-85
2022/09/05 16:09:21;;;;;;;4.05;1.77;;;;;;;;;;5033885;28;20026;-84
2022/09/05 16:11:48;;;;;;;2.80;1.50;;;;;;;;;;5033385;28;20084;-81
2022/09/05 16:14:29;;;;;;;3.10;1.67;;;;;;;;;;5018118;28;20021;-86
2022/09/05 16:16:58;;;;;;;6.18;2.58;;;;;;;;;;5033320;28;20041;-84
2022/09/05 16:19:36;;;;;;;3.15;1.45;;;;;;;;;;5034307;28;20025;-81
2022/09/05 16:22:11;;;;;;;7.43;2.40;;;;;;;;;;5032925;28;20573;-87
2022/09/05 16:24:41;;;;;;;6.00;1.75;;;;;;;;;;5033076;28;20489;-80
2022/09/05 16:27:09;;;;;;;7.88;1.77;;;;;;;;;;5017549;28;20474;-86
2022/09/05 16:29:41;;;;;;;2.70;1.38;;;;;;;;;;5032467;28;20033;-86
2022/09/05 16:32:07;;;;;;;2.33;1.50;;;;;;;;;;5033750;28;20033;-83
2022/09/05 16:34:43;;;;;;;6.70;1.80;;;;;;;;;;5033235;28;20025;-83
2022/09/05 16:37:12;;;;;;;2.72;1.85;;;;;;;;;;5016969;28;20095;-78
2022/09/05 16:39:43;;;;;;;2.78;1.38;;;;;;;;;;5033072;28;20029;-77
2022/09/05 16:42:24;;;;;;;5.97;1.75;;;;;;;;;;5031796;28;20022;-78
2022/09/05 16:44:53;;;;;;;4.78;1.85;;;;;;;;;;5016764;28;20054;-78
2022/09/05 16:47:24;;;;;;;5.93;2.10;;;;;;;;;;5036124;28;20041;-84
2022/09/05 16:50:02;;;;;;;6.40;1.92;;;;;;;;;;5033700;28;20022;-82
2022/09/05 16:52:35;;;;;;;7.32;2.15;;;;;;;;;;5016602;28;20121;-78
2022/09/05 16:55:02;;;;;;;;;;;;;;;;;;5017252;28;20030;-77
2022/09/05 16:57:31;;;;;;;4.50;2.50;;;;;;;;;;5016130;28;19913;-78
2022/09/05 16:59:57;;;;;;;7.20;3.58;;;;;;;;;;5031387;28;20034;-78
2022/09/05 17:02:42;;;;;;;10.52;4.28;;;;;;;;;;5016163;28;20508;-76
2022/09/05 17:05:08;;;;;;;7.57;2.80;;;;;;;;;;5016589;28;20044;-78
2022/09/05 17:07:49;;;;;;;12.55;2.90;;;;;;;;;;5031358;28;20022;-77
2022/09/05 17:10:21;;;;;;;6.68;2.83;;;;;;;;;;5016037;28;20359;-78
2022/09/05 17:12:50;;;;;;;7.78;2.50;;;;;;;;;;5030209;28;20112;-78
2022/09/05 17:15:19;;;;;;;29.52;2.40;;;;;;;;;;5031127;28;20089;-77
2022/09/05 17:17:45;;;;;;;21.48;2.50;;;;;;;;;;5031072;28;20033;-77
2022/09/05 17:20:14;;;;;;;21.25;2.75;;;;;;;;;;5015688;28;20034;-76
2022/09/05 17:22:45;;;;;;;14.15;2.40;;;;;;;;;;5030993;28;20030;-78
2022/09/05 17:25:25;;;;;;;18.00;2.60;;;;;;;;;;5031070;28;20026;-75
2022/09/05 17:27:53;;;;;;;10.40;2.08;;;;;;;;;;5024417;28;20463;-75
2022/09/05 17:30:38;;;;;;;13.30;2.28;;;;;;;;;;5003923;28;20049;-78
2022/09/05 17:33:16;;;;;;;8.65;2.03;;;;;;;;;;5020439;28;20030;-78
2022/09/05 17:36:06;;;;;;;11.15;2.13;;;;;;;;;;5005189;28;20428;-78
2022/09/05 17:38:51;;;;;;;10.48;2.80;;;;;;;;;;5004733;28;20022;-76
2022/09/05 17:41:26;;;;;;;5.10;2.38;;;;;;;;;;5019534;28;20030;-77
2022/09/05 17:44:16;;;;;;;3.60;2.40;;;;;;;;;;5005175;28;20026;-77
2022/09/05 17:46:49;;;;;;;6.43;3.33;;;;;;;;;;5005267;28;20013;-76
2022/09/05 17:49:15;;;;;;;;;;;;;;;;;;5010509;28;20029;-77
2022/09/05 17:51:51;;;;;;;9.02;3.50;;;;;;;;;;5030405;28;19906;-75
2022/09/05 17:54:21;;;;;;;10.27;4.28;;;;;;;;;;5030627;28;20083;-79
2022/09/05 17:56:48;;;;;;;17.45;4.40;;;;;;;;;;5015728;28;20041;-80
2022/09/05 17:59:18;;;;;;;11.90;4.20;;;;;;;;;;5015249;28;20101;-78
2022/09/05 18:02:02;;;;;;;10.25;3.63;;;;;;;;;;5030396;28;20033;-78
2022/09/05 18:04:46;;;;;;;9.50;4.20;;;;;;;;;;5014877;28;20045;-77
2022/09/05 18:07:28;;;;;;;11.32;3.83;;;;;;;;;;5030021;28;20030;-78
2022/09/05 18:09:56;;;;;;;12.48;4.10;;;;;;;;;;5030095;28;20493;-80
2022/09/05 18:12:30;;;;;;;13.25;4.20;;;;;;;;;;5030173;28;20029;-77
2022/09/05 18:14:57;;;;;;;7.78;3.80;;;;;;;;;;5011226;28;20031;-75